sensor_id;sensor_type;location;lat;lon;timestamp;pressure;altitude;pressure_sealevel;temperature;humidity
30073;BME280;16897;52.422;13.678;2023-08-07T00:03:37;99896.66;;;18.75;56.35
30073;BME280;16897;52.422;13.678;2023-08-07T00:07:38;99883.22;;;18.69;56.15
30073;BME280;16897;52.422;13.678;2023-08-07T00:11:40;99848.69;;;18.44;56.39
30073;BME280;16897;52.422;13.678;2023-08-07T00:15:42;99879.53;;;18.62;56.12
30073;BME280;16897;52.422;13.678;2023-08-07T00:19:43;99861.31;;;18.50;56.35
30073;BME280;16897;52.422;13.678;2023-08-07T00:23:45;99877.91;;;18.61;56.38
30073;BME280;16897;52.422;13.678;2023-08-07T00:27:46;99842.59;;;18.44;56.42
30073;BME280;16897;52.422;13.678;2023-08-07T00:31:49;99806.97;;;18.22;56.27
30073;BME280;16897;52.422;13.678;2023-08-07T00:35:50;99876.53;;;18.56;56.47
30073;BME280;16897;52.422;13.678;2023-08-07T00:39:51;99876.69;;;18.55;56.38
30073;BME280;16897;52.422;13.678;2023-08-07T00:43:53;99870.56;;;18.54;56.43
30073;BME280;16897;52.422;13.678;2023-08-07T00:47:56;99855.66;;;18.45;56.50
30073;BME280;16897;52.422;13.678;2023-08-07T00:51:58;99863.59;;;18.45;56.27
30073;BME280;16897;52.422;13.678;2023-08-07T00:56:00;99881.78;;;18.48;56.30
30073;BME280;16897;52.422;13.678;2023-08-07T01:00:04;99862.72;;;18.37;56.37
30073;BME280;16897;52.422;13.678;2023-08-07T01:04:06;99862.56;;;18.38;56.68
30073;BME280;16897;52.422;13.678;2023-08-07T01:08:08;99860.41;;;18.33;56.49
30073;BME280;16897;52.422;13.678;2023-08-07T01:12:19;99836.81;;;18.14;56.43
30073;BME280;16897;52.422;13.678;2023-08-07T01:16:26;99842.91;;;18.14;56.54
30073;BME280;16897;52.422;13.678;2023-08-07T01:20:30;99865.50;;;18.35;56.69
30073;BME280;16897;52.422;13.678;2023-08-07T01:24:32;99853.75;;;18.29;56.35
30073;BME280;16897;52.422;13.678;2023-08-07T01:28:36;99836.53;;;18.25;56.56
30073;BME280;16897;52.422;13.678;2023-08-07T01:36:56;99846.50;;;18.31;56.53
30073;BME280;16897;52.422;13.678;2023-08-07T01:41:00;99846.66;;;18.30;56.49
30073;BME280;16897;52.422;13.678;2023-08-07T01:45:02;99843.50;;;18.26;56.44
30073;BME280;16897;52.422;13.678;2023-08-07T01:49:05;99822.00;;;18.21;56.69
30073;BME280;16897;52.422;13.678;2023-08-07T01:53:07;99846.00;;;18.36;56.52
30073;BME280;16897;52.422;13.678;2023-08-07T01:57:09;99833.44;;;18.30;56.68
30073;BME280;16897;52.422;13.678;2023-08-07T02:01:10;99803.28;;;18.14;56.52
30073;BME280;16897;52.422;13.678;2023-08-07T02:05:13;99844.38;;;18.35;56.50
30073;BME280;16897;52.422;13.678;2023-08-07T02:09:15;99839.41;;;18.32;56.50
30073;BME280;16897;52.422;13.678;2023-08-07T02:13:16;99832.94;;;18.26;56.93
30073;BME280;16897;52.422;13.678;2023-08-07T02:17:20;99847.19;;;18.33;56.79
30073;BME280;16897;52.422;13.678;2023-08-07T02:21:23;99851.00;;;18.39;56.84
30073;BME280;16897;52.422;13.678;2023-08-07T02:25:25;99841.69;;;18.27;56.58
30073;BME280;16897;52.422;13.678;2023-08-07T02:29:26;99853.94;;;18.36;56.74
30073;BME280;16897;52.422;13.678;2023-08-07T02:33:28;99860.44;;;18.42;56.56
30073;BME280;16897;52.422;13.678;2023-08-07T02:37:31;99875.47;;;18.41;56.86
30073;BME280;16897;52.422;13.678;2023-08-07T02:41:33;99866.88;;;18.39;56.83
30073;BME280;16897;52.422;13.678;2023-08-07T02:45:36;99876.41;;;18.32;56.60
30073;BME280;16897;52.422;13.678;2023-08-07T02:49:37;99857.78;;;18.16;56.92
30073;BME280;16897;52.422;13.678;2023-08-07T02:53:39;99870.28;;;18.31;56.66
30073;BME280;16897;52.422;13.678;2023-08-07T02:57:41;99881.84;;;18.30;56.75
30073;BME280;16897;52.422;13.678;2023-08-07T03:01:43;99866.09;;;18.21;56.84
30073;BME280;16897;52.422;13.678;2023-08-07T03:05:49;99852.28;;;18.09;56.64
30073;BME280;16897;52.422;13.678;2023-08-07T03:09:51;99860.44;;;18.16;56.93
30073;BME280;16897;52.422;13.678;2023-08-07T03:13:53;99867.06;;;18.20;57.12
30073;BME280;16897;52.422;13.678;2023-08-07T03:17:54;99878.69;;;18.27;56.80
30073;BME280;16897;52.422;13.678;2023-08-07T03:21:56;99872.88;;;18.23;57.00
30073;BME280;16897;52.422;13.678;2023-08-07T03:26:12;99879.69;;;18.26;57.10
30073;BME280;16897;52.422;13.678;2023-08-07T03:30:15;99882.47;;;18.24;56.91
30073;BME280;16897;52.422;13.678;2023-08-07T03:34:17;99874.34;;;18.18;56.95
30073;BME280;16897;52.422;13.678;2023-08-07T03:38:19;99882.47;;;18.24;56.87
30073;BME280;16897;52.422;13.678;2023-08-07T03:42:21;99873.34;;;18.19;56.93
30073;BME280;16897;52.422;13.678;2023-08-07T03:46:23;99882.16;;;18.27;57.01
30073;BME280;16897;52.422;13.678;2023-08-07T03:50:26;99852.28;;;18.09;57.00
30073;BME280;16897;52.422;13.678;2023-08-07T03:54:28;99867.59;;;18.23;56.89
30073;BME280;16897;52.422;13.678;2023-08-07T03:58:29;99865.91;;;18.22;56.96
30073;BME280;16897;52.422;13.678;2023-08-07T04:02:31;99871.56;;;18.27;57.19
30073;BME280;16897;52.422;13.678;2023-08-07T04:06:33;99866.47;;;18.26;57.28
30073;BME280;16897;52.422;13.678;2023-08-07T04:10:34;99879.72;;;18.34;57.11
30073;BME280;16897;52.422;13.678;2023-08-07T04:14:36;99886.53;;;18.37;57.03
30073;BME280;16897;52.422;13.678;2023-08-07T04:18:37;99879.41;;;18.37;57.16
30073;BME280;16897;52.422;13.678;2023-08-07T04:22:40;99853.19;;;18.18;57.24
30073;BME280;16897;52.422;13.678;2023-08-07T04:26:41;99866.47;;;18.26;57.30
30073;BME280;16897;52.422;13.678;2023-08-07T04:30:44;99860.03;;;18.28;57.21
30073;BME280;16897;52.422;13.678;2023-08-07T04:34:46;99863.88;;;18.34;57.16
30073;BME280;16897;52.422;13.678;2023-08-07T04:38:47;99843.44;;;18.18;57.43
30073;BME280;16897;52.422;13.678;2023-08-07T04:42:49;99886.19;;;18.40;57.21
30073;BME280;16897;52.422;13.678;2023-08-07T04:46:51;99892.69;;;18.45;57.23
30073;BME280;16897;52.422;13.678;2023-08-07T04:50:53;99895.47;;;18.44;57.46
30073;BME280;16897;52.422;13.678;2023-08-07T04:54:55;99881.09;;;18.46;57.45
30073;BME280;16897;52.422;13.678;2023-08-07T04:58:56;99887.41;;;18.45;57.45
30073;BME280;16897;52.422;13.678;2023-08-07T05:02:58;99884.75;;;18.45;57.34
30073;BME280;16897;52.422;13.678;2023-08-07T05:06:59;99898.47;;;18.49;57.23
30073;BME280;16897;52.422;13.678;2023-08-07T05:11:01;99907.09;;;18.51;57.45
30073;BME280;16897;52.422;13.678;2023-08-07T05:15:03;99864.97;;;18.23;57.52
30073;BME280;16897;52.422;13.678;2023-08-07T05:19:04;99889.66;;;18.40;57.50
30073;BME280;16897;52.422;13.678;2023-08-07T05:23:06;99911.06;;;18.55;57.62
30073;BME280;16897;52.422;13.678;2023-08-07T05:27:08;99914.56;;;18.55;57.36
30073;BME280;16897;52.422;13.678;2023-08-07T05:31:10;99905.59;;;18.48;57.59
30073;BME280;16897;52.422;13.678;2023-08-07T05:35:11;99917.53;;;18.52;57.29
30073;BME280;16897;52.422;13.678;2023-08-07T05:39:13;99926.94;;;18.55;57.72
30073;BME280;16897;52.422;13.678;2023-08-07T05:43:14;99930.75;;;18.52;57.41
30073;BME280;16897;52.422;13.678;2023-08-07T05:47:18;99937.03;;;18.60;57.56
30073;BME280;16897;52.422;13.678;2023-08-07T05:51:20;99922.19;;;18.58;57.36
30073;BME280;16897;52.422;13.678;2023-08-07T05:55:22;99931.75;;;18.60;57.69
30073;BME280;16897;52.422;13.678;2023-08-07T05:59:23;99914.56;;;18.55;57.45
30073;BME280;16897;52.422;13.678;2023-08-07T06:03:25;99891.00;;;18.44;57.61
30073;BME280;16897;52.422;13.678;2023-08-07T06:07:27;99919.34;;;18.60;57.86
30073;BME280;16897;52.422;13.678;2023-08-07T06:11:29;99933.00;;;18.73;57.55
30073;BME280;16897;52.422;13.678;2023-08-07T06:15:32;99945.66;;;18.79;57.78
30073;BME280;16897;52.422;13.678;2023-08-07T06:19:33;99958.97;;;18.96;57.73
30073;BME280;16897;52.422;13.678;2023-08-07T06:23:35;99952.16;;;18.93;57.58
30073;BME280;16897;52.422;13.678;2023-08-07T06:27:37;99958.81;;;19.06;57.84
30073;BME280;16897;52.422;13.678;2023-08-07T06:31:39;99956.34;;;19.04;57.61
30073;BME280;16897;52.422;13.678;2023-08-07T06:35:40;99968.94;;;19.10;57.77
30073;BME280;16897;52.422;13.678;2023-08-07T06:39:44;99950.84;;;18.97;57.47
30073;BME280;16897;52.422;13.678;2023-08-07T06:43:46;99972.09;;;19.14;57.60
30073;BME280;16897;52.422;13.678;2023-08-07T06:47:47;99969.94;;;19.09;57.51
30073;BME280;16897;52.422;13.678;2023-08-07T06:51:48;99968.94;;;19.10;57.76
30073;BME280;16897;52.422;13.678;2023-08-07T06:55:50;99975.56;;;19.14;57.69
30073;BME280;16897;52.422;13.678;2023-08-07T06:59:51;99978.06;;;19.16;57.72
30073;BME280;16897;52.422;13.678;2023-08-07T07:03:53;99968.63;;;19.13;57.80
30073;BME280;16897;52.422;13.678;2023-08-07T07:07:55;99980.59;;;19.26;57.45
30073;BME280;16897;52.422;13.678;2023-08-07T07:11:56;99986.28;;;19.39;57.51
30073;BME280;16897;52.422;13.678;2023-08-07T07:15:58;99992.44;;;19.48;57.71
30073;BME280;16897;52.422;13.678;2023-08-07T07:19:59;99996.25;;;19.53;57.80
30073;BME280;16897;52.422;13.678;2023-08-07T07:24:02;99984.97;;;19.51;57.93
30073;BME280;16897;52.422;13.678;2023-08-07T07:28:03;99997.81;;;19.72;57.67
30073;BME280;16897;52.422;13.678;2023-08-07T07:32:05;99989.88;;;19.72;57.46
30073;BME280;16897;52.422;13.678;2023-08-07T07:36:07;100000.66;;;19.87;57.79
30073;BME280;16897;52.422;13.678;2023-08-07T07:40:14;100002.16;;;19.98;57.75
30073;BME280;16897;52.422;13.678;2023-08-07T07:44:15;100005.81;;;20.05;57.73
30073;BME280;16897;52.422;13.678;2023-08-07T07:48:17;100015.94;;;20.09;57.39
30073;BME280;16897;52.422;13.678;2023-08-07T07:52:18;100002.19;;;20.14;57.64
30073;BME280;16897;52.422;13.678;2023-08-07T07:56:20;100023.41;;;20.22;57.74
30073;BME280;16897;52.422;13.678;2023-08-07T08:00:22;99990.25;;;20.10;57.48
30073;BME280;16897;52.422;13.678;2023-08-07T08:04:27;99989.94;;;20.13;57.63
30073;BME280;16897;52.422;13.678;2023-08-07T08:08:28;100042.81;;;20.47;57.80
30073;BME280;16897;52.422;13.678;2023-08-07T08:12:30;100043.69;;;20.56;57.68
30073;BME280;16897;52.422;13.678;2023-08-07T08:16:32;100011.00;;;20.39;57.55
30073;BME280;16897;52.422;13.678;2023-08-07T08:20:33;100043.34;;;20.59;57.12
30073;BME280;16897;52.422;13.678;2023-08-07T08:24:35;100027.06;;;20.46;57.53
30073;BME280;16897;52.422;13.678;2023-08-07T08:28:38;100050.81;;;20.64;57.34
30073;BME280;16897;52.422;13.678;2023-08-07T08:32:39;100051.97;;;20.69;57.32
30073;BME280;16897;52.422;13.678;2023-08-07T08:36:41;100049.47;;;20.68;57.38
30073;BME280;16897;52.422;13.678;2023-08-07T08:40:42;100036.72;;;20.63;57.47
30073;BME280;16897;52.422;13.678;2023-08-07T08:44:51;100053.59;;;20.70;57.52
30073;BME280;16897;52.422;13.678;2023-08-07T08:48:57;100062.59;;;20.69;57.39
30073;BME280;16897;52.422;13.678;2023-08-07T08:53:01;100037.19;;;20.50;57.43
30073;BME280;16897;52.422;13.678;2023-08-07T08:57:04;100053.28;;;20.57;57.41
30073;BME280;16897;52.422;13.678;2023-08-07T09:01:07;100053.63;;;20.54;57.02
30073;BME280;16897;52.422;13.678;2023-08-07T09:05:10;100060.59;;;20.55;57.22
30073;BME280;16897;52.422;13.678;2023-08-07T09:09:12;100064.41;;;20.61;57.38
30073;BME280;16897;52.422;13.678;2023-08-07T09:13:14;100055.78;;;20.67;57.33
30073;BME280;16897;52.422;13.678;2023-08-07T09:17:18;100053.13;;;20.75;56.97
30073;BME280;16897;52.422;13.678;2023-08-07T09:21:21;100047.47;;;20.78;56.96
30073;BME280;16897;52.422;13.678;2023-08-07T09:25:33;100055.91;;;20.90;57.31
30073;BME280;16897;52.422;13.678;2023-08-07T09:29:34;100067.03;;;20.93;57.25
30073;BME280;16897;52.422;13.678;2023-08-07T09:33:36;100052.94;;;21.01;57.25
30073;BME280;16897;52.422;13.678;2023-08-07T09:37:41;100049.25;;;21.02;57.21
30073;BME280;16897;52.422;13.678;2023-08-07T09:41:44;100073.81;;;21.12;56.77
30073;BME280;16897;52.422;13.678;2023-08-07T09:45:52;100065.69;;;20.97;56.67
30073;BME280;16897;52.422;13.678;2023-08-07T09:49:54;100095.41;;;20.93;57.00
30073;BME280;16897;52.422;13.678;2023-08-07T09:53:57;100089.94;;;20.78;57.06
30073;BME280;16897;52.422;13.678;2023-08-07T09:58:00;100082.47;;;20.73;57.02
30073;BME280;16897;52.422;13.678;2023-08-07T10:02:03;100039.16;;;20.48;57.33
30073;BME280;16897;52.422;13.678;2023-08-07T10:06:05;100064.91;;;20.72;57.13
30073;BME280;16897;52.422;13.678;2023-08-07T10:10:07;100078.97;;;20.73;57.19
30073;BME280;16897;52.422;13.678;2023-08-07T10:14:09;100065.72;;;20.73;56.88
30073;BME280;16897;52.422;13.678;2023-08-07T10:18:10;100048.81;;;20.66;57.10
30073;BME280;16897;52.422;13.678;2023-08-07T10:22:12;100083.94;;;20.92;56.99
30073;BME280;16897;52.422;13.678;2023-08-07T10:26:15;100072.34;;;20.93;57.45
30073;BME280;16897;52.422;13.678;2023-08-07T10:30:17;100043.66;;;20.89;56.99
30073;BME280;16897;52.422;13.678;2023-08-07T10:34:21;100071.50;;;21.09;57.12
30073;BME280;16897;52.422;13.678;2023-08-07T10:38:23;100064.84;;;21.05;57.06
30073;BME280;16897;52.422;13.678;2023-08-07T10:42:25;100081.91;;;21.19;57.20
30073;BME280;16897;52.422;13.678;2023-08-07T10:46:27;100024.06;;;20.90;56.92
30073;BME280;16897;52.422;13.678;2023-08-07T10:50:32;100071.13;;;21.20;57.25
30073;BME280;16897;52.422;13.678;2023-08-07T10:54:38;100052.72;;;21.11;56.99
30073;BME280;16897;52.422;13.678;2023-08-07T10:58:49;100076.78;;;21.26;57.32
30073;BME280;16897;52.422;13.678;2023-08-07T11:02:50;100046.56;;;21.18;56.96
30073;BME280;16897;52.422;13.678;2023-08-07T11:06:52;100068.13;;;21.32;57.27
30073;BME280;16897;52.422;13.678;2023-08-07T11:10:53;100059.63;;;21.36;56.93
30073;BME280;16897;52.422;13.678;2023-08-07T11:14:56;100081.38;;;21.48;57.10
30073;BME280;16897;52.422;13.678;2023-08-07T11:18:57;100095.13;;;21.52;57.01
30073;BME280;16897;52.422;13.678;2023-08-07T11:22:59;100076.19;;;21.55;56.98
30073;BME280;16897;52.422;13.678;2023-08-07T11:27:01;100049.53;;;21.32;56.64
30073;BME280;16897;52.422;13.678;2023-08-07T11:31:02;100092.00;;;21.48;57.09
30073;BME280;16897;52.422;13.678;2023-08-07T11:35:05;100095.47;;;21.49;56.67
30073;BME280;16897;52.422;13.678;2023-08-07T11:39:07;100101.13;;;21.46;56.66
30073;BME280;16897;52.422;13.678;2023-08-07T11:43:08;100073.41;;;21.32;56.64
30073;BME280;16897;52.422;13.678;2023-08-07T11:47:11;100068.97;;;21.24;56.88
30073;BME280;16897;52.422;13.678;2023-08-07T11:51:13;100087.38;;;21.34;56.64
30073;BME280;16897;52.422;13.678;2023-08-07T11:55:14;100090.34;;;21.47;56.73
30073;BME280;16897;52.422;13.678;2023-08-07T11:59:16;100104.13;;;21.51;56.73
30073;BME280;16897;52.422;13.678;2023-08-07T12:03:30;100096.50;;;21.48;56.64
30073;BME280;16897;52.422;13.678;2023-08-07T12:07:32;100076.22;;;21.30;56.71
30073;BME280;16897;52.422;13.678;2023-08-07T12:11:34;100075.06;;;21.33;56.60
30073;BME280;16897;52.422;13.678;2023-08-07T12:15:37;100096.13;;;21.51;56.46
30073;BME280;16897;52.422;13.678;2023-08-07T12:19:39;100097.13;;;21.58;56.74
30073;BME280;16897;52.422;13.678;2023-08-07T12:23:41;100079.03;;;21.53;56.34
30073;BME280;16897;52.422;13.678;2023-08-07T12:27:45;100075.56;;;21.53;56.36
30073;BME280;16897;52.422;13.678;2023-08-07T12:31:48;100094.25;;;21.68;56.39
30073;BME280;16897;52.422;13.678;2023-08-07T12:35:51;100084.75;;;21.73;56.26
30073;BME280;16897;52.422;13.678;2023-08-07T12:39:54;100089.91;;;21.75;56.31
30073;BME280;16897;52.422;13.678;2023-08-07T12:43:56;100107.44;;;21.92;56.27
30073;BME280;16897;52.422;13.678;2023-08-07T12:47:57;100095.63;;;21.95;56.37
30073;BME280;16897;52.422;13.678;2023-08-07T12:51:59;100080.03;;;21.92;56.34
30073;BME280;16897;52.422;13.678;2023-08-07T12:56:01;100092.13;;;21.94;56.34
30073;BME280;16897;52.422;13.678;2023-08-07T13:00:05;100102.06;;;22.00;56.10
30073;BME280;16897;52.422;13.678;2023-08-07T13:04:07;100103.75;;;22.01;56.42
30073;BME280;16897;52.422;13.678;2023-08-07T13:08:10;100081.84;;;21.91;56.45
30073;BME280;16897;52.422;13.678;2023-08-07T13:12:11;100079.84;;;21.93;55.96
30073;BME280;16897;52.422;13.678;2023-08-07T13:16:13;100123.47;;;22.07;56.06
30073;BME280;16897;52.422;13.678;2023-08-07T13:20:14;100176.16;;;22.12;55.74
30073;BME280;16897;52.422;13.678;2023-08-07T13:24:26;100120.03;;;21.59;55.98
30073;BME280;16897;52.422;13.678;2023-08-07T13:28:30;100152.34;;;21.79;55.75
30073;BME280;16897;52.422;13.678;2023-08-07T13:32:32;100160.22;;;21.64;56.05
30073;BME280;16897;52.422;13.678;2023-08-07T13:36:35;100158.25;;;21.50;56.07
30073;BME280;16897;52.422;13.678;2023-08-07T13:40:37;100134.53;;;21.24;55.99
30073;BME280;16897;52.422;13.678;2023-08-07T13:44:39;100141.50;;;21.25;56.35
30073;BME280;16897;52.422;13.678;2023-08-07T13:48:41;100180.84;;;21.46;56.14
30073;BME280;16897;52.422;13.678;2023-08-07T13:52:42;100184.66;;;21.43;56.45
30073;BME280;16897;52.422;13.678;2023-08-07T13:56:44;100195.13;;;21.45;56.48
30073;BME280;16897;52.422;13.678;2023-08-07T14:00:45;100203.56;;;21.56;56.41
30073;BME280;16897;52.422;13.678;2023-08-07T14:04:46;100212.53;;;21.63;56.30
30073;BME280;16897;52.422;13.678;2023-08-07T14:08:48;100206.69;;;21.68;56.20
30073;BME280;16897;52.422;13.678;2023-08-07T14:12:49;100208.19;;;21.71;56.42
30073;BME280;16897;52.422;13.678;2023-08-07T14:16:50;100211.81;;;21.78;56.06
30073;BME280;16897;52.422;13.678;2023-08-07T14:20:52;100210.00;;;21.78;56.09
30073;BME280;16897;52.422;13.678;2023-08-07T14:24:53;100207.66;;;21.83;56.48
30073;BME280;16897;52.422;13.678;2023-08-07T14:28:55;100211.13;;;21.92;55.97
30073;BME280;16897;52.422;13.678;2023-08-07T14:32:56;100218.94;;;21.94;56.38
30073;BME280;16897;52.422;13.678;2023-08-07T14:36:59;100211.66;;;21.79;56.44
30073;BME280;16897;52.422;13.678;2023-08-07T14:41:01;100244.81;;;22.00;55.96
30073;BME280;16897;52.422;13.678;2023-08-07T14:45:04;100268.44;;;21.95;55.85
30073;BME280;16897;52.422;13.678;2023-08-07T14:49:05;100262.00;;;21.81;55.99
30073;BME280;16897;52.422;13.678;2023-08-07T14:53:07;100265.34;;;21.75;55.95
30073;BME280;16897;52.422;13.678;2023-08-07T14:57:09;100279.13;;;21.70;55.84
30073;BME280;16897;52.422;13.678;2023-08-07T15:01:11;100276.66;;;21.60;56.13
30073;BME280;16897;52.422;13.678;2023-08-07T15:05:14;100271.84;;;21.56;55.96
30073;BME280;16897;52.422;13.678;2023-08-07T15:09:15;100280.28;;;21.59;56.00
30073;BME280;16897;52.422;13.678;2023-08-07T15:13:18;100271.50;;;21.51;55.86
30073;BME280;16897;52.422;13.678;2023-08-07T15:17:19;100274.31;;;21.49;55.69
30073;BME280;16897;52.422;13.678;2023-08-07T15:21:21;100292.91;;;21.49;55.90
30073;BME280;16897;52.422;13.678;2023-08-07T15:25:22;100293.75;;;21.50;56.06
30073;BME280;16897;52.422;13.678;2023-08-07T15:29:23;100244.09;;;21.17;55.65
30073;BME280;16897;52.422;13.678;2023-08-07T15:33:25;100279.44;;;21.34;55.71
30073;BME280;16897;52.422;13.678;2023-08-07T15:37:26;100257.84;;;21.29;55.58
30073;BME280;16897;52.422;13.678;2023-08-07T15:41:28;100286.94;;;21.39;56.06
30073;BME280;16897;52.422;13.678;2023-08-07T15:45:29;100251.53;;;21.22;55.76
30073;BME280;16897;52.422;13.678;2023-08-07T15:49:31;100289.91;;;21.44;55.76
30073;BME280;16897;52.422;13.678;2023-08-07T15:53:32;100295.22;;;21.44;55.39
30073;BME280;16897;52.422;13.678;2023-08-07T15:57:33;100323.81;;;21.50;55.75
30073;BME280;16897;52.422;13.678;2023-08-07T16:01:35;100297.59;;;21.47;55.78
30073;BME280;16897;52.422;13.678;2023-08-07T16:05:37;100306.53;;;21.54;55.32
30073;BME280;16897;52.422;13.678;2023-08-07T16:09:39;100276.16;;;21.40;55.44
30073;BME280;16897;52.422;13.678;2023-08-07T16:13:40;100309.84;;;21.56;55.48
30073;BME280;16897;52.422;13.678;2023-08-07T16:17:41;100315.03;;;21.50;55.43
30073;BME280;16897;52.422;13.678;2023-08-07T16:21:43;100315.16;;;21.48;55.09
30073;BME280;16897;52.422;13.678;2023-08-07T16:25:44;100321.16;;;21.50;55.06
30073;BME280;16897;52.422;13.678;2023-08-07T16:29:45;100303.88;;;21.46;55.14
30073;BME280;16897;52.422;13.678;2023-08-07T16:33:47;100323.63;;;21.52;55.11
30073;BME280;16897;52.422;13.678;2023-08-07T16:37:48;100310.00;;;21.47;55.01
30073;BME280;16897;52.422;13.678;2023-08-07T16:41:49;100306.88;;;21.43;55.05
30073;BME280;16897;52.422;13.678;2023-08-07T16:45:51;100326.63;;;21.49;55.14
30073;BME280;16897;52.422;13.678;2023-08-07T16:49:52;100340.91;;;21.48;54.96
30073;BME280;16897;52.422;13.678;2023-08-07T16:53:53;100331.06;;;21.24;54.90
30073;BME280;16897;52.422;13.678;2023-08-07T16:57:55;100337.53;;;21.29;54.60
30073;BME280;16897;52.422;13.678;2023-08-07T17:01:56;100364.44;;;21.26;54.59
30073;BME280;16897;52.422;13.678;2023-08-07T17:05:58;100372.06;;;21.21;54.68
30073;BME280;16897;52.422;13.678;2023-08-07T17:09:59;100358.25;;;21.09;54.56
30073;BME280;16897;52.422;13.678;2023-08-07T17:14:01;100367.84;;;21.02;54.89
30073;BME280;16897;52.422;13.678;2023-08-07T17:18:02;100381.47;;;21.07;54.87
30073;BME280;16897;52.422;13.678;2023-08-07T17:22:04;100384.59;;;21.03;54.30
30073;BME280;16897;52.422;13.678;2023-08-07T17:26:06;100386.28;;;21.04;54.19
30073;BME280;16897;52.422;13.678;2023-08-07T17:30:08;100400.22;;;21.06;54.56
30073;BME280;16897;52.422;13.678;2023-08-07T17:34:09;100375.75;;;20.86;54.37
30073;BME280;16897;52.422;13.678;2023-08-07T17:38:10;100404.69;;;21.05;54.18
30073;BME280;16897;52.422;13.678;2023-08-07T17:42:12;100404.84;;;20.95;54.12
30073;BME280;16897;52.422;13.678;2023-08-07T17:46:13;100402.47;;;20.92;54.54
30073;BME280;16897;52.422;13.678;2023-08-07T17:50:14;100397.13;;;20.84;54.45
30073;BME280;16897;52.422;13.678;2023-08-07T17:54:16;100386.66;;;20.74;54.13
30073;BME280;16897;52.422;13.678;2023-08-07T17:58:19;100407.34;;;20.71;54.19
30073;BME280;16897;52.422;13.678;2023-08-07T18:02:21;100441.13;;;20.87;54.15
30073;BME280;16897;52.422;13.678;2023-08-07T18:06:22;100448.91;;;20.80;53.93
30073;BME280;16897;52.422;13.678;2023-08-07T18:10:23;100426.63;;;20.73;54.02
30073;BME280;16897;52.422;13.678;2023-08-07T18:14:25;100450.03;;;20.77;54.10
30073;BME280;16897;52.422;13.678;2023-08-07T18:18:26;100459.28;;;20.73;54.16
30073;BME280;16897;52.422;13.678;2023-08-07T18:22:27;100439.66;;;20.58;54.01
30073;BME280;16897;52.422;13.678;2023-08-07T18:26:29;100447.94;;;20.55;54.24
30073;BME280;16897;52.422;13.678;2023-08-07T18:30:30;100437.56;;;20.52;53.83
30073;BME280;16897;52.422;13.678;2023-08-07T18:34:32;100386.31;;;20.17;53.87
30073;BME280;16897;52.422;13.678;2023-08-07T18:38:33;100456.78;;;20.46;53.92
30073;BME280;16897;52.422;13.678;2023-08-07T18:42:35;100462.06;;;20.46;53.91
30073;BME280;16897;52.422;13.678;2023-08-07T18:46:36;100474.28;;;20.39;54.10
30073;BME280;16897;52.422;13.678;2023-08-07T18:50:38;100487.19;;;20.33;53.88
30073;BME280;16897;52.422;13.678;2023-08-07T18:54:41;100446.31;;;20.00;53.87
30073;BME280;16897;52.422;13.678;2023-08-07T18:58:43;100454.44;;;19.99;53.96
30073;BME280;16897;52.422;13.678;2023-08-07T19:02:45;100499.72;;;20.23;53.76
30073;BME280;16897;52.422;13.678;2023-08-07T19:06:47;100469.34;;;20.00;53.80
30073;BME280;16897;52.422;13.678;2023-08-07T19:10:51;100503.13;;;20.16;53.65
30073;BME280;16897;52.422;13.678;2023-08-07T19:14:52;100492.28;;;20.09;53.85
30073;BME280;16897;52.422;13.678;2023-08-07T19:19:08;100519.16;;;20.14;53.85
30073;BME280;16897;52.422;13.678;2023-08-07T19:23:10;100525.47;;;20.13;53.90
30073;BME280;16897;52.422;13.678;2023-08-07T19:27:15;100530.78;;;20.13;53.38
30073;BME280;16897;52.422;13.678;2023-08-07T19:31:16;100512.44;;;20.02;53.45
30073;BME280;16897;52.422;13.678;2023-08-07T19:35:18;100531.69;;;20.04;53.56
30073;BME280;16897;52.422;13.678;2023-08-07T19:39:22;100537.50;;;20.07;53.66
30073;BME280;16897;52.422;13.678;2023-08-07T19:43:25;100537.25;;;20.01;53.64
30073;BME280;16897;52.422;13.678;2023-08-07T19:47:29;100539.56;;;19.96;53.47
30073;BME280;16897;52.422;13.678;2023-08-07T19:51:31;100534.34;;;19.76;53.46
30073;BME280;16897;52.422;13.678;2023-08-07T19:55:33;100517.94;;;19.63;53.41
30073;BME280;16897;52.422;13.678;2023-08-07T19:59:40;100566.56;;;19.81;53.50
30073;BME280;16897;52.422;13.678;2023-08-07T20:03:43;100562.84;;;19.74;53.40
30073;BME280;16897;52.422;13.678;2023-08-07T20:07:44;100559.50;;;19.72;53.73
30073;BME280;16897;52.422;13.678;2023-08-07T20:11:46;100573.06;;;19.69;53.45
30073;BME280;16897;52.422;13.678;2023-08-07T20:15:48;100573.88;;;19.70;53.28
30073;BME280;16897;52.422;13.678;2023-08-07T20:19:50;100573.44;;;19.64;53.30
30073;BME280;16897;52.422;13.678;2023-08-07T20:23:52;100580.88;;;19.61;53.33
30073;BME280;16897;52.422;13.678;2023-08-07T20:27:53;100589.66;;;19.61;53.39
30073;BME280;16897;52.422;13.678;2023-08-07T20:31:58;100582.13;;;19.57;53.65
30073;BME280;16897;52.422;13.678;2023-08-07T20:36:05;100568.66;;;19.50;53.57
30073;BME280;16897;52.422;13.678;2023-08-07T20:40:07;100573.13;;;19.50;53.68
30073;BME280;16897;52.422;13.678;2023-08-07T20:44:12;100587.63;;;19.45;53.42
30073;BME280;16897;52.422;13.678;2023-08-07T20:48:13;100572.44;;;19.38;53.45
30073;BME280;16897;52.422;13.678;2023-08-07T20:52:15;100577.91;;;19.36;53.17
30073;BME280;16897;52.422;13.678;2023-08-07T20:56:17;100564.28;;;19.21;53.59
30073;BME280;16897;52.422;13.678;2023-08-07T21:00:19;100591.41;;;19.33;53.44